Time;durP1;ratioP1;P1;durP2;ratioP2;P2;SDS_P1;SDS_P2;PMS_P1;PMS_P2;Temp;Humidity;BMP_temperature;BMP_pressure;BME280_temperature;BME280_humidity;BME280_pressure;Samples;Min_cycle;Max_cycle;Signal;HPM_P1;HPM_P2
2022/07/14 00:00:25;;;;;;;0.10;0.10;;;18.10;62.30;;;19.96;52.77;102156.91;2010856;29;20185;-62
2022/07/14 00:01:29;;;;;;;0.10;0.10;;;18.00;62.50;;;19.93;52.81;102165.84;2016395;29;20500;-61
2022/07/14 00:02:32;;;;;;;0.10;0.10;;;18.00;62.70;;;19.93;53.09;102165.06;2016350;29;20056;-62
2022/07/14 00:03:36;;;;;;;0.10;0.10;;;18.00;62.80;;;19.91;52.98;102165.44;2015630;29;20139;-62
2022/07/14 00:04:38;;;;;;;0.10;0.10;;;18.00;62.90;;;19.91;53.09;102170.13;2015418;29;20059;-62
2022/07/14 00:05:42;;;;;;;0.10;0.10;;;18.00;62.90;;;19.89;52.88;102161.47;2015339;29;20068;-62
2022/07/14 00:06:44;;;;;;;0.10;0.10;;;18.10;63.00;;;19.88;53.19;102168.13;2015547;29;20092;-62
2022/07/14 00:07:48;;;;;;;0.10;0.10;;;18.00;63.10;;;19.85;53.34;102166.13;2015840;29;20510;-63
2022/07/14 00:08:50;;;;;;;0.10;0.10;;;18.00;63.20;;;19.83;53.19;102165.69;2015785;29;20557;-62
2022/07/14 00:09:53;;;;;;;0.10;0.10;;;17.90;63.30;;;19.79;53.47;102164.88;2015348;29;20080;-62
2022/07/14 00:10:56;;;;;;;0.10;0.10;;;17.90;63.50;;;19.78;53.47;102171.50;2007623;29;20577;-62
2022/07/14 00:11:59;;;;;;;0.05;0.05;;;17.80;63.70;;;19.74;53.57;102168.69;2015406;29;20091;-62
2022/07/14 00:13:02;;;;;;;0.10;0.10;;;17.80;63.90;;;19.72;53.66;102164.75;2015399;29;20053;-63
2022/07/14 00:14:05;;;;;;;0.10;0.10;;;17.70;64.10;;;19.67;53.73;102163.13;2015019;29;20052;-63
2022/07/14 00:15:09;;;;;;;0.10;0.10;;;17.60;64.20;;;19.63;53.76;102151.31;2015683;29;20057;-64
2022/07/14 00:16:12;;;;;;;0.10;0.10;;;17.60;64.40;;;19.59;53.82;102155.97;2014395;29;20478;-62
2022/07/14 00:17:16;;;;;;;0.10;0.10;;;17.60;64.50;;;19.55;53.96;102154.34;2015442;29;20612;-62
2022/07/14 00:18:19;;;;;;;0.10;0.10;;;17.60;64.60;;;19.54;54.06;102150.81;2015001;29;20530;-62
2022/07/14 00:19:22;;;;;;;0.10;0.10;;;17.60;64.50;;;19.54;54.07;102156.28;2015121;29;20060;-62
2022/07/14 00:20:26;;;;;;;0.10;0.10;;;17.60;64.50;;;19.53;53.97;102151.16;2015576;29;20063;-63
2022/07/14 00:21:29;;;;;;;0.10;0.10;;;17.60;64.40;;;19.53;54.02;102145.69;2014979;29;20139;-61
2022/07/14 00:22:32;;;;;;;0.10;0.10;;;17.60;64.40;;;19.53;54.08;102151.16;2015733;29;20727;-61
2022/07/14 00:23:34;;;;;;;0.10;0.10;;;17.70;64.40;;;19.52;54.15;102144.91;2015893;29;20532;-62
2022/07/14 00:24:38;;;;;;;0.10;0.10;;;17.70;64.30;;;19.52;53.93;102149.59;2015392;29;20483;-62
2022/07/14 00:25:41;;;;;;;0.10;0.10;;;17.70;64.20;;;19.53;54.08;102149.22;2015674;29;20076;-62
2022/07/14 00:26:44;;;;;;;0.10;0.10;;;17.80;64.10;;;19.52;54.13;102150.38;2015562;29;20053;-62
2022/07/14 00:27:47;;;;;;;0.10;0.10;;;17.80;64.10;;;19.53;53.93;102148.44;2015062;29;20057;-62
2022/07/14 00:28:50;;;;;;;0.10;0.10;;;17.80;64.00;;;19.53;54.17;102151.16;2015512;29;20087;-62
2022/07/14 00:29:53;;;;;;;0.10;0.10;;;17.80;63.90;;;19.53;53.94;102151.16;2014847;29;20085;-62
2022/07/14 00:31:03;;;;;;;0.10;0.10;;;17.80;63.90;;;19.53;54.02;102148.44;2006853;29;20599;-62
2022/07/14 00:32:08;;;;;;;0.10;0.10;;;17.80;63.90;;;19.52;54.06;102149.59;2008101;29;20512;-62
2022/07/14 00:33:15;;;;;;;0.10;0.10;;;17.80;64.00;;;19.52;54.09;102150.38;2006641;29;20053;-64
2022/07/14 00:34:17;;;;;;;0.10;0.10;;;17.80;64.00;;;19.52;53.98;102144.13;2007241;29;20057;-62
2022/07/14 00:35:21;;;;;;;0.20;0.20;;;17.70;63.90;;;19.50;54.30;102141.75;2015692;29;20619;-61
2022/07/14 00:36:23;;;;;;;0.08;0.08;;;17.80;64.00;;;19.49;54.20;102145.63;2015646;29;20057;-62
2022/07/14 00:37:27;;;;;;;0.00;0.00;;;17.80;64.00;;;19.49;54.17;102145.63;2014656;29;20114;-62
2022/07/14 00:38:29;;;;;;;0.10;0.10;;;17.70;63.90;;;19.48;54.08;102143.28;2015563;29;20057;-62
2022/07/14 00:40:51;;;;;;;0.10;0.10;;;17.80;64.00;;;19.47;54.27;102136.22;2015570;29;20116;-61
2022/07/14 00:41:53;;;;;;;0.10;0.10;;;17.70;64.00;;;19.47;54.44;102139.75;2014146;29;20080;-63
2022/07/14 00:42:57;;;;;;;0.10;0.10;;;17.80;64.10;;;19.46;54.23;102140.09;2014675;29;20421;-61
2022/07/14 00:44:00;;;;;;;0.10;0.10;;;17.70;64.10;;;19.45;54.34;102136.59;2015597;29;20548;-62
2022/07/14 00:45:06;;;;;;;0.10;0.10;;;17.70;64.20;;;19.43;54.34;102135.38;2015029;29;20052;-61
2022/07/14 00:46:10;;;;;;;0.10;0.10;;;17.70;64.30;;;19.42;54.35;102131.06;2006668;29;20107;-61
2022/07/14 00:47:13;;;;;;;0.10;0.10;;;17.70;64.20;;;19.42;54.54;102133.78;2007349;29;20061;-62
2022/07/14 00:48:19;;;;;;;0.10;0.10;;;17.70;64.20;;;19.40;54.43;102119.66;2014764;29;21004;-62
2022/07/14 00:49:34;;;;;;;0.10;0.10;;;17.70;64.30;;;19.37;54.50;102126.69;2015464;29;20517;-62
2022/07/14 00:50:41;;;;;;;0.10;0.10;;;17.70;64.40;;;19.37;54.43;102129.41;2014559;29;20469;-62
2022/07/14 00:51:43;;;;;;;0.10;0.10;;;17.70;64.30;;;19.32;54.55;102129.72;2004319;29;20088;-62
2022/07/14 00:52:51;;;;;;;0.10;0.10;;;17.60;64.40;;;19.29;54.70;102130.47;2005466;29;20173;-62
2022/07/14 00:53:56;;;;;;;0.10;0.10;;;17.60;64.50;;;19.26;54.61;102131.97;2014823;29;20553;-61
2022/07/14 00:54:59;;;;;;;0.10;0.10;;;17.50;64.60;;;19.23;54.75;102127.22;2006954;29;20050;-61
2022/07/14 00:56:02;;;;;;;0.10;0.10;;;17.50;64.80;;;19.21;54.94;102134.22;2007055;29;20053;-62
2022/07/14 00:57:06;;;;;;;0.20;0.20;;;17.40;64.90;;;19.18;55.10;102134.97;2015411;29;20064;-62
2022/07/14 00:58:08;;;;;;;0.10;0.10;;;17.40;65.10;;;19.13;54.99;102127.84;2015645;29;20125;-62
2022/07/14 00:59:12;;;;;;;0.00;0.00;;;17.30;65.40;;;19.12;54.94;102130.97;2015348;29;20528;-64
2022/07/14 01:00:17;;;;;;;0.05;0.05;;;17.30;65.60;;;19.11;55.18;102130.16;2015273;29;20517;-62
2022/07/14 01:01:20;;;;;;;0.10;0.10;;;17.20;65.80;;;19.11;55.43;102134.84;2014810;29;20088;-62
2022/07/14 01:02:23;;;;;;;0.10;0.10;;;17.20;65.90;;;19.10;55.30;102133.25;2014913;29;20458;-62
2022/07/14 01:03:28;;;;;;;0.10;0.10;;;17.20;66.00;;;19.08;55.46;102128.16;2014777;29;20061;-62
2022/07/14 01:04:30;;;;;;;0.10;0.10;;;17.30;66.10;;;19.08;55.55;102130.91;2015289;29;20053;-62
2022/07/14 01:05:35;;;;;;;0.10;0.10;;;17.30;66.10;;;19.05;55.61;102128.91;2014954;29;20053;-62
2022/07/14 01:06:37;;;;;;;0.10;0.10;;;17.20;66.60;;;19.00;55.75;102129.19;2015343;29;20060;-62
2022/07/14 01:07:40;;;;;;;0.10;0.10;;;17.20;66.00;;;19.00;55.55;102134.66;2015032;29;20091;-62
2022/07/14 01:08:43;;;;;;;0.10;0.10;;;17.20;66.20;;;18.99;55.84;102137.78;2015142;29;20132;-62
2022/07/14 01:09:47;;;;;;;0.10;0.10;;;17.20;66.20;;;18.93;55.85;102137.28;2015159;29;20057;-62
2022/07/14 01:10:49;;;;;;;0.10;0.10;;;17.20;66.30;;;18.92;55.88;102137.66;2015400;29;20061;-61
2022/07/14 01:11:53;;;;;;;0.00;0.00;;;17.10;66.40;;;18.90;55.87;102140.75;2015390;29;20079;-62
2022/07/14 01:13:00;;;;;;;0.10;0.10;;;17.10;66.50;;;18.87;55.96;102141.47;2015429;29;20462;-62
2022/07/14 01:14:03;;;;;;;0.10;0.10;;;17.10;67.30;;;18.84;56.17;102130.47;2015369;29;20100;-62
2022/07/14 01:15:07;;;;;;;0.20;0.20;;;17.00;66.80;;;18.82;56.26;102133.56;2015287;29;20508;-62
2022/07/14 01:16:11;;;;;;;0.10;0.10;;;17.00;67.00;;;18.81;56.15;102129.25;2015389;29;20142;-62
2022/07/14 01:17:14;;;;;;;0.10;0.10;;;17.00;67.10;;;18.76;56.08;102126.81;2014838;29;20067;-63
2022/07/14 01:18:17;;;;;;;0.10;0.10;;;16.90;67.10;;;18.78;56.31;102132.72;2015614;29;20065;-62
2022/07/14 01:19:22;;;;;;;0.10;0.10;;;17.00;67.20;;;18.77;56.47;102131.16;2015109;29;20064;-62
2022/07/14 01:20:27;;;;;;;0.00;0.00;;;16.90;67.20;;;18.76;56.34;102121.34;2014604;29;20497;-62
2022/07/14 01:21:31;;;;;;;0.00;0.00;;;17.00;67.10;;;18.77;56.43;102130.34;2015437;29;20065;-62
2022/07/14 01:22:34;;;;;;;0.10;0.10;;;17.00;67.10;;;18.76;56.34;102117.81;2014776;29;20098;-62
2022/07/14 01:23:37;;;;;;;0.10;0.10;;;17.00;67.40;;;18.76;56.01;102124.09;2016668;29;20135;-61
2022/07/14 01:24:40;;;;;;;0.10;0.10;;;17.00;66.90;;;18.74;56.13;102120.91;2015159;29;20585;-64
2022/07/14 01:25:44;;;;;;;0.10;0.10;;;17.00;66.80;;;18.73;56.32;102119.34;2015216;29;20060;-61
2022/07/14 01:26:48;;;;;;;0.10;0.10;;;17.00;66.80;;;18.69;56.16;102118.50;2004994;29;20077;-61
2022/07/14 01:27:52;;;;;;;0.10;0.10;;;17.00;66.80;;;18.70;56.31;102120.06;1998032;29;20084;-61
2022/07/14 01:28:55;;;;;;;0.10;0.10;;;17.00;66.70;;;18.70;56.21;102122.81;2012523;29;20486;-61
2022/07/14 01:30:01;;;;;;;0.10;0.10;;;17.00;66.70;;;18.70;56.27;102114.59;2014818;29;20053;-61
2022/07/14 01:31:07;;;;;;;0.10;0.10;;;17.10;66.70;;;18.69;56.59;102118.50;2014764;29;20049;-61
2022/07/14 01:32:11;;;;;;;0.10;0.10;;;17.00;66.60;;;18.66;56.33;102111.00;2015308;29;20110;-61
2022/07/14 01:33:14;;;;;;;0.10;0.10;;;17.10;66.60;;;18.69;56.42;102114.97;2014888;29;20064;-61
2022/07/14 01:34:18;;;;;;;0.10;0.10;;;17.10;66.60;;;18.66;56.28;102111.00;2013254;29;20453;-61
2022/07/14 01:35:23;;;;;;;0.08;0.08;;;17.00;66.60;;;18.66;56.58;102116.47;2012659;29;20113;-61
2022/07/14 01:36:26;;;;;;;0.08;0.08;;;17.00;66.70;;;18.66;56.46;102107.50;2006243;29;20603;-61
2022/07/14 01:37:30;;;;;;;0.10;0.10;;;17.00;66.70;;;18.64;56.81;102116.06;2006062;29;20578;-62
2022/07/14 01:38:33;;;;;;;0.10;0.10;;;17.00;66.80;;;18.63;56.39;102117.19;2015004;29;20083;-62
2022/07/14 01:39:37;;;;;;;0.10;0.10;;;16.90;66.80;;;18.62;56.17;102114.81;2021152;29;20090;-62
2022/07/14 01:40:40;;;;;;;0.10;0.10;;;16.90;66.80;;;18.61;56.56;102125.00;2013612;29;20719;-63
2022/07/14 01:41:43;;;;;;;0.10;0.10;;;16.90;66.90;;;18.61;56.65;102118.72;2007651;29;20667;-61
2022/07/14 01:42:46;;;;;;;0.10;0.10;;;16.90;67.00;;;18.60;56.42;102122.63;2016046;29;20096;-61
2022/07/14 01:43:49;;;;;;;0.10;0.10;;;16.90;67.00;;;18.59;56.61;102119.09;2016417;29;20492;-61
2022/07/14 01:44:52;;;;;;;0.10;0.10;;;16.90;66.90;;;18.57;56.49;102113.19;2016388;29;20052;-61
2022/07/14 01:45:55;;;;;;;0.20;0.20;;;17.00;66.90;;;18.57;56.67;102115.94;2016773;29;20092;-62
2022/07/14 01:46:57;;;;;;;0.10;0.10;;;17.00;66.80;;;18.57;56.60;102113.19;2007926;29;20132;-61
2022/07/14 01:48:01;;;;;;;0.10;0.10;;;17.00;66.80;;;18.56;56.86;102110.81;2008300;29;20057;-62
2022/07/14 01:49:03;;;;;;;0.10;0.10;;;17.00;66.80;;;18.54;56.74;102111.19;2017406;29;20548;-62
2022/07/14 01:50:08;;;;;;;0.10;0.10;;;16.90;66.70;;;18.52;56.54;102110.75;2016746;29;20048;-62
2022/07/14 01:51:14;;;;;;;0.00;0.00;;;17.00;66.70;;;18.51;56.51;102106.44;2002011;29;20138;-62
2022/07/14 01:52:17;;;;;;;0.10;0.10;;;16.90;66.70;;;18.50;56.70;102104.88;2009331;29;20087;-61
2022/07/14 01:53:21;;;;;;;0.10;0.10;;;16.90;66.80;;;18.49;56.68;102103.28;2020524;29;20048;-62
2022/07/14 01:54:25;;;;;;;0.00;0.00;;;16.90;66.90;;;18.49;56.65;102110.72;2024698;29;20060;-62
2022/07/14 01:55:28;;;;;;;0.10;0.10;;;16.80;66.90;;;18.47;56.65;102113.78;2017888;29;20508;-62
2022/07/14 01:56:32;;;;;;;0.10;0.10;;;16.80;67.00;;;18.44;56.99;102117.25;2024600;29;20070;-62
2022/07/14 01:57:36;;;;;;;0.10;0.10;;;16.80;67.10;;;18.41;56.69;102111.72;2016717;29;20152;-62
2022/07/14 01:58:39;;;;;;;0.10;0.10;;;16.70;67.30;;;18.37;57.28;102108.09;2009516;29;20049;-63
2022/07/14 01:59:43;;;;;;;0.10;0.10;;;16.60;67.40;;;18.34;56.97;102106.88;2024483;29;20674;-62
2022/07/14 02:01:39;;;;;;;0.10;0.10;;;16.60;67.70;;;18.30;57.34;102116.94;2022997;29;20081;-62
2022/07/14 02:02:14;;;;;;;0.10;0.10;;;16.50;68.00;;;18.27;57.04;102114.94;2010750;29;20057;-62
2022/07/14 02:03:17;;;;;;;0.10;0.10;;;16.40;68.20;;;18.24;56.99;102118.41;2008507;29;20133;-62
2022/07/14 02:04:21;;;;;;;0.10;0.10;;;16.30;68.40;;;18.20;57.46;102112.09;2010020;29;20088;-62
2022/07/14 02:05:24;;;;;;;0.10;0.10;;;16.30;68.70;;;18.18;57.64;102114.38;2013883;29;20131;-61
2022/07/14 02:06:27;;;;;;;0.10;0.10;;;16.30;68.70;;;18.15;57.63;102115.09;2017300;29;20068;-62
2022/07/14 02:07:30;;;;;;;0.10;0.10;;;16.30;68.90;;;18.13;57.71;102120.13;2008048;29;20061;-62
2022/07/14 02:08:41;;;;;;;0.00;0.00;;;16.30;69.00;;;18.11;57.65;102119.69;2010073;29;20080;-65
2022/07/14 02:12:38;;;;;;;0.10;0.10;;;16.20;69.10;;;18.07;57.52;102115.31;2011458;29;20064;-62
2022/07/14 02:13:44;;;;;;;0.10;0.10;;;16.20;69.10;;;18.03;57.55;102112.50;2016578;29;20049;-62
2022/07/14 02:14:48;;;;;;;0.10;0.10;;;16.20;69.10;;;18.01;57.74;102117.56;2016974;29;20426;-62
2022/07/14 02:15:50;;;;;;;0.10;0.10;;;16.20;69.10;;;17.98;57.87;102115.53;2015709;29;20139;-62
2022/07/14 02:16:54;;;;;;;0.05;0.05;;;16.30;69.10;;;17.97;57.91;102113.94;2016805;29;20087;-62
2022/07/14 02:17:57;;;;;;;0.10;0.10;;;16.30;69.10;;;17.97;58.17;102115.88;2008866;29;20060;-62
2022/07/14 02:19:02;;;;;;;0.10;0.10;;;16.30;69.10;;;17.95;58.09;102113.50;1997471;29;20050;-61
2022/07/14 02:20:09;;;;;;;0.10;0.10;;;16.30;69.00;;;17.94;58.08;102114.66;2003211;29;20058;-62
2022/07/14 02:21:11;;;;;;;0.10;0.10;;;16.30;69.10;;;17.93;58.03;102113.09;2017015;29;20061;-63
2022/07/14 02:22:14;;;;;;;0.10;0.10;;;16.30;69.10;;;17.92;58.52;102106.81;2017175;29;20053;-62
2022/07/14 02:23:17;;;;;;;0.00;0.00;;;16.30;69.10;;;17.91;58.05;102112.66;2008731;29;20057;-62
2022/07/14 02:24:26;;;;;;;0.10;0.10;;;16.20;69.10;;;17.91;58.30;102120.84;1995029;29;20086;-62
2022/07/14 02:25:29;;;;;;;0.10;0.10;;;16.20;69.10;;;17.91;58.09;102115.38;2002188;29;20140;-62
2022/07/14 02:26:33;;;;;;;0.20;0.20;;;16.20;69.20;;;17.90;58.16;102116.53;2001470;29;20053;-62
2022/07/14 02:27:35;;;;;;;0.13;0.13;;;16.20;69.10;;;17.89;58.21;102118.47;2009069;29;20098;-61
2022/07/14 02:28:39;;;;;;;0.10;0.10;;;16.20;69.10;;;17.87;58.42;102117.22;2017334;29;20494;-62
2022/07/14 02:29:48;;;;;;;0.10;0.10;;;16.20;69.20;;;17.86;58.26;102112.94;2011079;29;20061;-62
2022/07/14 02:30:52;;;;;;;0.10;0.10;;;16.20;69.20;;;17.86;58.40;102121.13;2008873;29;20577;-62
2022/07/14 02:31:54;;;;;;;0.05;0.05;;;16.10;69.20;;;17.85;58.38;102119.56;2009420;29;20553;-62
2022/07/14 02:33:01;;;;;;;0.10;0.10;;;16.10;69.40;;;17.82;58.41;102117.53;2009460;29;20113;-62
2022/07/14 02:34:04;;;;;;;0.10;0.10;;;16.10;69.50;;;17.81;58.40;102115.94;2013110;29;20065;-62
2022/07/14 02:35:08;;;;;;;0.10;0.10;;;16.10;69.50;;;17.80;58.33;102108.91;2015623;29;20049;-62
2022/07/14 02:36:11;;;;;;;0.10;0.10;;;16.10;69.50;;;17.81;58.38;102115.94;2018893;29;20049;-63
2022/07/14 02:37:15;;;;;;;0.10;0.10;;;16.10;69.40;;;17.80;58.51;102111.63;2009051;29;20057;-62
2022/07/14 02:38:17;;;;;;;0.10;0.10;;;16.10;69.40;;;17.80;58.34;102106.16;2008785;29;20100;-62
2022/07/14 02:39:21;;;;;;;0.10;0.10;;;16.10;69.30;;;17.75;58.37;102107.25;2016642;29;20050;-62
2022/07/14 02:40:26;;;;;;;0.10;0.10;;;16.20;69.30;;;17.80;58.42;102111.63;2017358;29;20516;-62
2022/07/14 02:41:29;;;;;;;0.10;0.10;;;16.20;69.30;;;17.76;58.52;102106.09;2014550;29;20049;-61
2022/07/14 02:42:32;;;;;;;0.10;0.10;;;16.20;69.30;;;17.77;58.35;102109.63;2008516;29;20495;-62
2022/07/14 02:43:36;;;;;;;0.10;0.10;;;16.20;69.40;;;17.76;58.26;102113.47;2016952;29;20059;-62
2022/07/14 02:44:40;;;;;;;0.10;0.10;;;16.10;69.30;;;17.75;58.43;102122.84;2015924;29;20086;-62
2022/07/14 02:45:44;;;;;;;0.10;0.10;;;16.10;69.30;;;17.73;58.50;102112.28;2008994;29;20057;-62
2022/07/14 02:46:46;;;;;;;0.05;0.05;;;16.10;69.40;;;17.73;58.38;102111.47;2016208;29;20190;-62
2022/07/14 02:47:51;;;;;;;0.10;0.10;;;16.10;69.40;;;17.73;58.46;102109.53;2008793;29;20061;-62
2022/07/14 02:48:54;;;;;;;0.10;0.10;;;16.10;69.40;;;17.71;58.66;102109.09;2008926;29;20060;-62
2022/07/14 02:49:57;;;;;;;0.10;0.10;;;16.10;69.50;;;17.71;58.63;102106.38;2008527;29;20080;-61
2022/07/14 02:51:01;;;;;;;0.10;0.10;;;16.10;69.50;;;17.70;58.52;102115.72;2008861;29;20057;-64
2022/07/14 02:52:05;;;;;;;0.10;0.10;;;16.00;69.50;;;17.70;58.61;102112.19;2008554;29;20081;-62
2022/07/14 02:53:09;;;;;;;0.10;0.10;;;16.00;69.60;;;17.67;58.68;102105.50;2007417;29;20478;-62
2022/07/14 02:54:17;;;;;;;0.10;0.10;;;16.00;69.80;;;17.66;58.68;102105.88;2008802;29;20511;-62
2022/07/14 02:55:20;;;;;;;0.20;0.20;;;15.90;69.90;;;17.64;58.73;102099.97;2016638;29;20057;-62
2022/07/14 02:56:25;;;;;;;0.10;0.10;;;15.80;70.00;;;17.63;58.84;102098.41;2016032;29;20044;-62
2022/07/14 02:57:27;;;;;;;0.10;0.10;;;15.80;70.30;;;17.60;58.66;102102.63;2009087;29;20089;-62
2022/07/14 02:58:33;;;;;;;0.10;0.10;;;15.80;70.30;;;17.58;58.80;102102.16;2016316;29;20049;-62
2022/07/14 02:59:41;;;;;;;0.10;0.10;;;15.80;70.50;;;17.57;58.73;102099.78;2023506;29;20180;-62
2022/07/14 03:00:44;;;;;;;0.10;0.10;;;15.80;70.70;;;17.57;58.90;102105.25;2023440;29;20060;-62
2022/07/14 03:01:47;;;;;;;0.05;0.05;;;15.80;70.70;;;17.55;59.18;102102.88;2014292;29;20135;-62
2022/07/14 03:02:54;;;;;;;0.10;0.10;;;15.80;70.70;;;17.53;59.15;102104.41;2014772;29;20140;-62
2022/07/14 03:03:58;;;;;;;0.10;0.10;;;15.80;70.70;;;17.51;58.97;102101.22;2021704;29;20055;-63
2022/07/14 03:05:02;;;;;;;0.10;0.10;;;15.80;70.80;;;17.51;58.97;102104.75;2019392;29;20048;-62
2022/07/14 03:06:12;;;;;;;0.10;0.10;;;15.70;70.70;;;17.51;59.32;102104.75;2007685;29;20537;-65
2022/07/14 03:07:14;;;;;;;0.10;0.10;;;15.80;70.90;;;17.50;59.26;102105.13;2002388;29;20069;-62
2022/07/14 03:08:18;;;;;;;0.10;0.10;;;15.80;70.80;;;17.49;59.24;102098.84;2011891;29;20059;-63
2022/07/14 03:09:20;;;;;;;0.10;0.10;;;15.80;70.70;;;17.48;59.33;102105.47;2008888;29;20853;-62
2022/07/14 03:10:25;;;;;;;0.10;0.10;;;15.80;70.50;;;17.48;59.41;102101.94;2008548;29;20097;-62
2022/07/14 03:11:31;;;;;;;0.10;0.10;;;15.80;70.40;;;17.48;59.26;102105.47;2016174;29;20196;-62
2022/07/14 03:12:34;;;;;;;0.10;0.10;;;15.80;70.40;;;17.48;59.11;102099.22;2016992;29;20429;-62
2022/07/14 03:13:38;;;;;;;0.10;0.10;;;15.90;70.30;;;17.47;59.12;102097.66;2023897;29;20135;-62
2022/07/14 03:14:41;;;;;;;0.20;0.20;;;15.90;70.30;;;17.47;59.38;102100.38;2015509;29;20060;-62
2022/07/14 03:15:45;;;;;;;0.10;0.10;;;15.90;70.20;;;17.46;59.32;102098.78;2007534;29;20061;-63
2022/07/14 03:16:47;;;;;;;0.10;0.10;;;15.90;70.20;;;17.45;59.19;102092.53;2016832;29;20128;-62
2022/07/14 03:17:51;;;;;;;0.10;0.10;;;15.90;70.20;;;17.46;59.28;102096.03;2017156;29;20105;-62
2022/07/14 03:18:54;;;;;;;0.10;0.10;;;15.90;70.10;;;17.45;59.46;102108.13;2016720;29;20072;-62
2022/07/14 03:19:57;;;;;;;0.10;0.10;;;15.90;70.00;;;17.44;59.30;102104.59;2015666;29;20092;-62
2022/07/14 03:21:05;;;;;;;0.10;0.10;;;15.90;70.60;;;17.44;59.25;102103.78;2001180;29;20506;-62
2022/07/14 03:22:08;;;;;;;0.10;0.10;;;15.90;70.00;;;17.44;59.20;102110.03;2006333;29;20815;-62
2022/07/14 03:23:13;;;;;;;0.10;0.10;;;15.90;70.00;;;17.44;59.54;102107.31;2008543;29;20056;-62
2022/07/14 03:24:15;;;;;;;0.10;0.10;;;15.90;70.00;;;17.44;59.03;102107.31;2000896;29;20065;-62
2022/07/14 03:25:19;;;;;;;0.20;0.20;;;15.90;70.00;;;17.44;59.12;102104.59;2008103;29;20594;-62
2022/07/14 03:26:25;;;;;;;0.10;0.10;;;15.90;69.80;;;17.45;59.02;102108.91;2016049;29;20083;-63
2022/07/14 03:27:30;;;;;;;0.10;0.10;;;15.90;69.80;;;17.44;59.00;102111.97;2014949;29;20411;-62
2022/07/14 03:28:33;;;;;;;0.10;0.10;;;15.90;69.70;;;17.43;59.01;102115.84;2013013;29;20048;-62
2022/07/14 03:29:40;;;;;;;0.10;0.10;;;15.90;69.70;;;17.42;58.80;102119.72;2007977;29;20570;-62
2022/07/14 03:30:43;;;;;;;0.10;0.10;;;15.90;69.70;;;17.43;59.05;102115.84;2001145;29;20146;-62
2022/07/14 03:31:47;;;;;;;0.10;0.10;;;15.80;69.60;;;17.43;58.95;102124.81;2016101;29;20425;-63
2022/07/14 03:32:50;;;;;;;0.10;0.10;;;15.90;69.70;;;17.43;59.01;102118.56;2023747;29;20083;-62
2022/07/14 03:33:54;;;;;;;0.17;0.17;;;15.90;69.70;;;17.42;58.98;102128.72;2015922;29;20159;-62
2022/07/14 03:34:58;;;;;;;0.20;0.20;;;15.90;69.70;;;17.43;59.02;102126.75;2027942;29;20428;-62
2022/07/14 03:36:02;;;;;;;0.10;0.10;;;15.90;69.70;;;17.42;58.87;102123.25;2014085;29;20100;-62
2022/07/14 03:37:09;;;;;;;0.10;0.10;;;15.90;69.70;;;17.42;59.02;102126.00;2015093;29;20056;-64
2022/07/14 03:38:22;;;;;;;0.00;0.00;;;15.90;69.70;;;17.41;59.15;102118.16;2022911;29;20111;-62
2022/07/14 03:39:38;;;;;;;0.10;0.10;;;15.90;70.30;;;17.41;58.97;102127.13;2007948;29;20544;-64
2022/07/14 03:40:41;;;;;;;0.10;0.10;;;15.80;69.70;;;17.38;59.14;102122.38;2007920;29;20072;-62
2022/07/14 03:41:44;;;;;;;0.10;0.10;;;15.80;69.90;;;17.37;59.20;102128.19;2015034;29;20053;-63
2022/07/14 03:42:49;;;;;;;0.10;0.10;;;15.80;70.00;;;17.34;59.23;102117.97;2015888;29;20044;-62
2022/07/14 03:43:54;;;;;;;0.10;0.10;;;15.80;70.10;;;17.35;59.46;102122.28;2008528;29;20064;-62
2022/07/14 03:44:58;;;;;;;0.10;0.10;;;15.70;70.10;;;17.32;59.29;102117.53;1998187;29;20608;-63
2022/07/14 03:46:08;;;;;;;0.10;0.10;;;15.80;70.20;;;17.32;59.30;102123.00;2015023;29;20109;-62
2022/07/14 03:47:20;;;;;;;0.10;0.10;;;15.70;70.20;;;17.31;59.17;102113.22;2014630;29;20056;-62
2022/07/14 03:48:25;;;;;;;0.10;0.10;;;15.70;70.20;;;17.30;59.52;102111.66;2005862;29;20053;-62
2022/07/14 03:49:33;;;;;;;0.10;0.10;;;15.70;70.30;;;17.28;59.34;102114.72;1999405;29;20057;-62
2022/07/14 03:50:37;;;;;;;0.10;0.10;;;15.70;70.40;;;17.28;59.36;102109.25;2005998;29;20049;-62
2022/07/14 03:51:41;;;;;;;0.10;0.10;;;15.70;70.40;;;17.26;59.33;102116.22;2009095;29;20045;-62
2022/07/14 03:52:45;;;;;;;0.10;0.10;;;15.70;70.50;;;17.27;59.53;102115.06;2000544;29;20132;-63
2022/07/14 03:53:47;;;;;;;0.10;0.10;;;15.70;70.40;;;17.26;59.57;102117.03;2007779;29;20561;-62
2022/07/14 03:54:51;;;;;;;0.10;0.10;;;15.70;70.40;;;17.27;59.57;102109.59;2013210;29;20601;-62
2022/07/14 03:55:56;;;;;;;0.10;0.10;;;15.70;70.50;;;17.27;59.45;102112.34;2007129;29;20053;-62
2022/07/14 03:57:01;;;;;;;0.10;0.10;;;15.70;70.50;;;17.24;59.52;102104.84;2008993;29;20045;-62
2022/07/14 03:58:05;;;;;;;0.10;0.10;;;15.70;70.50;;;17.25;59.64;102107.22;2007325;29;20058;-62
2022/07/14 03:59:10;;;;;;;0.00;0.00;;;15.70;70.50;;;17.23;59.47;102106.00;2005434;29;20066;-62
2022/07/14 04:00:14;;;;;;;0.10;0.10;;;15.70;70.40;;;17.28;59.47;102113.94;1992483;29;20062;-63
2022/07/14 04:01:21;;;;;;;0.00;0.00;;;15.70;70.40;;;17.27;59.67;102107.69;1993253;29;20058;-62
2022/07/14 04:02:26;;;;;;;0.10;0.10;;;15.70;70.40;;;17.27;59.41;102099.50;2000113;29;20073;-62
2022/07/14 04:03:30;;;;;;;0.10;0.10;;;15.70;70.40;;;17.28;59.58;102103.03;1999610;29;20089;-62
2022/07/14 04:04:33;;;;;;;0.10;0.10;;;15.70;70.30;;;17.28;59.74;102103.03;2013098;29;20064;-62
2022/07/14 04:05:36;;;;;;;0.10;0.10;;;15.70;70.30;;;17.27;59.42;102101.41;2013699;29;20112;-62
2022/07/14 04:06:42;;;;;;;0.10;0.10;;;15.70;70.30;;;17.29;59.72;102112.78;1999199;29;20099;-62
2022/07/14 04:07:46;;;;;;;0.10;0.10;;;15.70;70.30;;;17.27;59.61;102098.69;2014520;29;20049;-62
2022/07/14 04:08:49;;;;;;;0.10;0.10;;;15.70;70.40;;;17.27;59.72;102112.34;2022437;29;20059;-62
2022/07/14 04:09:54;;;;;;;0.10;0.10;;;15.70;70.40;;;17.26;59.48;102105.31;2008905;29;20054;-62
2022/07/14 04:10:58;;;;;;;0.10;0.10;;;15.70;70.40;;;17.26;59.69;102110.75;2007960;29;20053;-62
2022/07/14 04:12:00;;;;;;;0.10;0.10;;;15.70;70.50;;;17.24;59.75;102108.38;2008274;29;20144;-62
2022/07/14 04:13:05;;;;;;;0.10;0.10;;;15.60;70.60;;;17.24;59.97;102108.38;2001310;29;20422;-64
2022/07/14 04:14:08;;;;;;;0.10;0.10;;;15.60;70.70;;;17.24;59.75;102108.38;2009321;29;20045;-62
2022/07/14 04:15:12;;;;;;;0.10;0.10;;;15.60;70.80;;;17.22;59.78;102102.47;2007933;29;20050;-62
2022/07/14 04:16:14;;;;;;;0.10;0.10;;;15.60;71.00;;;17.22;59.83;102104.44;2014003;29;20148;-62
2022/07/14 04:17:23;;;;;;;0.10;0.10;;;15.50;71.10;;;17.22;59.68;102102.47;2013211;29;20704;-62
2022/07/14 04:18:26;;;;;;;0.10;0.10;;;15.60;71.20;;;17.24;59.86;102110.31;2006507;29;20064;-63
2022/07/14 04:19:30;;;;;;;0.17;0.17;;;15.60;71.30;;;17.24;59.93;102107.59;2015267;29;20064;-62
2022/07/14 04:20:33;;;;;;;0.15;0.15;;;15.60;71.30;;;17.23;59.91;102116.94;2019600;29;21420;-62
2022/07/14 04:21:37;;;;;;;0.10;0.10;;;15.60;71.30;;;17.21;59.81;102111.03;2020058;29;20052;-62
2022/07/14 04:22:40;;;;;;;0.10;0.10;;;15.60;71.20;;;17.20;59.99;102113.00;2019966;29;20209;-62
2022/07/14 04:23:45;;;;;;;0.10;0.10;;;15.60;71.30;;;17.20;59.90;102112.19;2014274;29;20049;-63
2022/07/14 04:24:49;;;;;;;0.10;0.10;;;15.50;71.30;;;17.19;60.25;102118.78;2007381;29;20056;-62
2022/07/14 04:25:51;;;;;;;0.10;0.10;;;15.50;71.30;;;17.18;60.29;102119.94;2012916;29;20072;-62
2022/07/14 04:26:56;;;;;;;0.10;0.10;;;15.50;71.40;;;17.17;60.25;102119.13;2006780;29;20065;-62
2022/07/14 04:27:59;;;;;;;0.13;0.13;;;15.50;71.60;;;17.18;60.44;102119.94;1998686;29;20140;-62
2022/07/14 04:29:04;;;;;;;0.10;0.10;;;15.50;71.60;;;17.17;60.45;102124.59;2005731;29;20109;-62
2022/07/14 04:30:08;;;;;;;0.10;0.10;;;15.50;71.70;;;17.18;60.36;102128.13;2006383;29;20057;-62
2022/07/14 04:31:12;;;;;;;0.10;0.10;;;15.50;71.90;;;17.17;60.29;102124.59;1999469;29;20543;-62